createdAt,value
2017-06-21T00:01:45.560Z,14.77
2017-06-21T00:04:11.885Z,15.43
2017-06-21T00:06:38.359Z,15.50
2017-06-21T00:09:04.692Z,15.43
2017-06-21T00:11:31.036Z,15.27
2017-06-21T00:13:57.775Z,14.40
2017-06-21T00:16:24.248Z,14.80
2017-06-21T00:18:50.588Z,13.97
2017-06-21T00:21:16.920Z,15.50
2017-06-21T00:23:50.121Z,15.63
2017-06-21T00:26:16.480Z,14.80
2017-06-21T00:28:42.792Z,14.80
2017-06-21T00:31:09.110Z,14.83
2017-06-21T00:33:35.460Z,15.57
2017-06-21T00:36:01.890Z,14.90
2017-06-21T00:38:28.258Z,15.87
2017-06-21T00:40:54.565Z,14.20
2017-06-21T00:43:21.181Z,15.27
2017-06-21T00:45:47.512Z,15.70
2017-06-21T00:48:14.043Z,16.27
2017-06-21T00:50:40.424Z,16.30
2017-06-21T00:53:06.755Z,15.83
2017-06-21T00:55:33.060Z,15.93
2017-06-21T00:57:59.502Z,16.17
2017-06-21T01:00:25.812Z,15.80
2017-06-21T01:02:52.146Z,15.47
2017-06-21T01:05:18.524Z,14.73
2017-06-21T01:07:45.702Z,15.57
2017-06-21T01:10:12.044Z,16.33
2017-06-21T01:12:38.369Z,14.80
2017-06-21T01:15:04.713Z,15.77
2017-06-21T01:17:31.094Z,15.83
2017-06-21T01:19:58.228Z,15.63
2017-06-21T01:22:25.289Z,15.90
2017-06-21T01:24:52.380Z,16.33
2017-06-21T01:27:18.683Z,15.97
2017-06-21T01:29:44.996Z,16.10
2017-06-21T01:32:12.069Z,15.07
2017-06-21T01:34:38.400Z,15.83
2017-06-21T01:37:04.752Z,16.80
2017-06-21T01:39:31.107Z,15.87
2017-06-21T01:41:57.445Z,16.10
2017-06-21T01:44:23.795Z,15.50
2017-06-21T01:46:50.140Z,15.03
2017-06-21T01:49:17.227Z,15.70
2017-06-21T01:51:43.587Z,16.37
2017-06-21T01:54:09.929Z,16.40
2017-06-21T01:56:36.267Z,15.53
2017-06-21T01:59:02.596Z,15.90
2017-06-21T02:01:28.904Z,15.87
2017-06-21T02:03:55.231Z,16.37
2017-06-21T02:06:21.530Z,16.00
2017-06-21T02:08:47.859Z,14.63
2017-06-21T02:11:14.180Z,14.83
2017-06-21T02:13:40.513Z,15.00
2017-06-21T02:16:06.906Z,15.00
2017-06-21T02:18:33.420Z,14.70
2017-06-21T02:20:59.729Z,14.60
2017-06-21T02:23:26.084Z,14.23
2017-06-21T02:25:52.415Z,15.20
2017-06-21T02:28:18.717Z,15.10
2017-06-21T02:30:45.073Z,14.10
2017-06-21T02:33:11.414Z,14.60
2017-06-21T02:35:37.740Z,13.97
2017-06-21T02:38:04.051Z,14.33
2017-06-21T02:40:30.386Z,15.27
2017-06-21T02:42:56.691Z,14.70
2017-06-21T02:45:23.140Z,15.20
2017-06-21T02:47:49.459Z,14.00
2017-06-21T02:50:15.755Z,13.63
2017-06-21T02:52:42.124Z,15.30
2017-06-21T02:55:08.431Z,15.00
2017-06-21T02:57:34.765Z,15.20
2017-06-21T03:00:01.066Z,15.70
2017-06-21T03:02:27.401Z,14.63
2017-06-21T03:04:54.447Z,14.63
2017-06-21T03:07:20.771Z,14.73
2017-06-21T03:09:47.070Z,14.60
2017-06-21T03:12:13.393Z,15.90
2017-06-21T03:14:39.737Z,14.53
2017-06-21T03:17:06.047Z,15.00
2017-06-21T03:19:32.389Z,14.50
2017-06-21T03:21:58.705Z,14.20
2017-06-21T03:24:25.031Z,14.80
2017-06-21T03:26:51.339Z,14.73
2017-06-21T03:29:18.485Z,14.23
2017-06-21T03:31:45.527Z,14.30
2017-06-21T03:34:12.596Z,14.20
2017-06-21T03:36:38.902Z,13.77
2017-06-21T03:39:05.998Z,14.10
2017-06-21T03:41:32.294Z,15.10
2017-06-21T03:43:59.331Z,14.20
2017-06-21T03:46:26.401Z,15.23
2017-06-21T03:48:52.703Z,15.57
2017-06-21T03:51:19.819Z,14.77
2017-06-21T03:53:46.126Z,15.60
2017-06-21T03:56:12.455Z,15.37
2017-06-21T03:58:38.763Z,15.90
2017-06-21T04:01:05.087Z,16.27
2017-06-21T04:03:32.131Z,15.13
2017-06-21T04:05:59.215Z,15.80
2017-06-21T04:08:25.508Z,16.83
2017-06-21T04:10:52.548Z,17.07
2017-06-21T04:13:19.616Z,15.90
2017-06-21T04:15:45.942Z,15.73
2017-06-21T04:18:13.033Z,16.37
2017-06-21T04:20:39.372Z,15.97
2017-06-21T04:23:05.712Z,16.73
2017-06-21T04:25:32.019Z,17.17
2017-06-21T04:27:58.365Z,15.30
2017-06-21T04:30:24.675Z,16.90
2017-06-21T04:32:51.011Z,17.30
2017-06-21T04:35:17.307Z,16.30
2017-06-21T04:37:43.639Z,16.67
2017-06-21T04:40:09.943Z,16.97
2017-06-21T04:42:36.996Z,16.40
2017-06-21T04:45:04.063Z,15.87
2017-06-21T04:47:30.368Z,16.20
2017-06-21T04:49:56.712Z,17.03
2017-06-21T04:52:23.770Z,17.00
2017-06-21T04:54:50.118Z,16.90
2017-06-21T04:59:49.637Z,17.23
2017-06-21T05:02:15.943Z,18.40
2017-06-21T05:04:43.016Z,17.07
2017-06-21T05:07:09.319Z,16.50
2017-06-21T05:09:36.399Z,16.50
2017-06-21T05:12:02.700Z,17.00
2017-06-21T05:14:29.744Z,16.70
2017-06-21T05:16:56.823Z,16.20
2017-06-21T05:19:23.153Z,17.87
2017-06-21T05:21:49.474Z,16.63
2017-06-21T05:24:15.801Z,17.40
2017-06-21T05:26:42.140Z,16.50
2017-06-21T05:29:08.446Z,16.07
2017-06-21T05:31:35.522Z,16.40
2017-06-21T05:34:01.828Z,16.37
2017-06-21T05:36:28.928Z,16.47
2017-06-21T05:38:55.250Z,16.50
2017-06-21T05:41:21.569Z,15.37
2017-06-21T05:43:47.902Z,16.10
2017-06-21T05:46:14.210Z,15.47
2017-06-21T05:48:40.525Z,14.77
2017-06-21T05:51:07.571Z,14.00
2017-06-21T05:53:34.652Z,15.10
2017-06-21T05:56:00.967Z,14.83
2017-06-21T05:58:27.300Z,13.90
2017-06-21T06:00:53.640Z,14.70
2017-06-21T06:03:19.961Z,14.03
2017-06-21T06:05:46.282Z,12.70
2017-06-21T06:08:12.592Z,13.43
2017-06-21T06:10:38.932Z,14.20
2017-06-21T06:13:05.980Z,15.40
2017-06-21T06:15:33.053Z,14.97
2017-06-21T06:17:59.361Z,12.83
2017-06-21T06:20:26.454Z,12.80
2017-06-21T06:22:52.765Z,13.00
2017-06-21T06:25:19.071Z,12.70
2017-06-21T06:27:46.131Z,12.60
2017-06-21T06:30:12.443Z,12.50
2017-06-21T06:32:39.511Z,13.80
2017-06-21T06:35:05.827Z,13.83
2017-06-21T06:37:32.928Z,13.23
2017-06-21T06:39:59.231Z,12.60
2017-06-21T06:42:25.542Z,12.87
2017-06-21T06:44:52.639Z,13.67
2017-06-21T06:47:18.983Z,14.57
2017-06-21T06:49:45.307Z,14.37
2017-06-21T06:52:11.618Z,13.27
2017-06-21T06:54:37.947Z,14.43
2017-06-21T06:57:04.273Z,14.00
2017-06-21T06:59:30.595Z,13.53
2017-06-21T07:01:56.918Z,13.20
2017-06-21T07:04:23.264Z,14.77
2017-06-21T07:06:49.588Z,14.10
2017-06-21T07:09:15.910Z,13.63
2017-06-21T07:11:42.237Z,15.53
2017-06-21T07:14:08.743Z,14.17
2017-06-21T07:16:35.805Z,14.93
2017-06-21T07:19:02.869Z,13.33
2017-06-21T07:21:29.195Z,14.80
2017-06-21T07:23:55.501Z,15.40
2017-06-21T07:26:22.587Z,14.23
2017-06-21T07:28:48.891Z,14.30
2017-06-21T07:31:15.218Z,15.60
2017-06-21T07:33:42.299Z,14.27
2017-06-21T07:36:08.639Z,15.93
2017-06-21T07:38:34.964Z,15.37
2017-06-21T07:41:01.271Z,15.10
2017-06-21T07:43:27.599Z,16.20
2017-06-21T07:45:53.913Z,14.77
2017-06-21T07:48:21.031Z,14.40
2017-06-21T07:50:47.350Z,14.47
2017-06-21T07:53:13.697Z,15.40
2017-06-21T07:55:40.001Z,15.30
2017-06-21T07:58:06.313Z,15.53
2017-06-21T08:00:32.649Z,14.07
2017-06-21T08:02:58.969Z,16.07
2017-06-21T08:05:25.300Z,16.23
2017-06-21T08:07:51.621Z,16.17
2017-06-21T08:10:17.964Z,15.80
2017-06-21T08:12:44.268Z,15.70
2017-06-21T08:15:11.347Z,15.80
2017-06-21T08:17:37.649Z,14.60
2017-06-21T08:20:04.739Z,15.50
2017-06-21T08:22:31.028Z,15.77
2017-06-21T08:24:58.111Z,17.23
2017-06-21T08:27:24.415Z,14.83
2017-06-21T08:29:50.758Z,15.33
2017-06-21T08:32:17.088Z,16.80
2017-06-21T08:34:43.399Z,15.70
2017-06-21T08:37:10.467Z,15.17
2017-06-21T08:39:36.765Z,14.63
2017-06-21T08:42:03.845Z,15.90
2017-06-21T08:44:30.156Z,16.20
2017-06-21T08:46:57.323Z,16.30
2017-06-21T08:49:23.890Z,15.17
2017-06-21T08:51:50.219Z,16.50
2017-06-21T08:54:16.547Z,15.50
2017-06-21T08:56:42.860Z,14.30
2017-06-21T08:59:09.178Z,13.67
2017-06-21T09:01:35.495Z,15.13
2017-06-21T09:04:01.827Z,15.63
2017-06-21T09:06:28.138Z,16.43
2017-06-21T09:08:54.472Z,15.70
2017-06-21T09:11:20.789Z,16.07
2017-06-21T09:13:47.112Z,14.03
2017-06-21T09:16:13.438Z,14.33
2017-06-21T09:18:39.767Z,14.30
2017-06-21T09:21:06.096Z,15.00
2017-06-21T09:23:33.152Z,14.50
2017-06-21T09:25:59.488Z,14.07
2017-06-21T09:28:25.880Z,13.93
2017-06-21T09:30:52.465Z,13.67
2017-06-21T09:33:18.918Z,14.70
2017-06-21T09:35:45.367Z,14.20
2017-06-21T09:38:11.761Z,13.90
2017-06-21T09:40:38.191Z,14.60
2017-06-21T09:43:04.642Z,13.97
2017-06-21T09:45:31.096Z,14.00
2017-06-21T09:47:57.506Z,14.80
2017-06-21T09:50:23.959Z,13.60
2017-06-21T09:52:50.277Z,15.60
2017-06-21T09:55:16.583Z,14.80
2017-06-21T09:57:42.904Z,12.90
2017-06-21T10:00:09.221Z,13.60
2017-06-21T10:02:35.632Z,13.73
2017-06-21T10:05:01.973Z,13.43
2017-06-21T10:07:28.288Z,14.03
2017-06-21T10:09:54.583Z,14.47
2017-06-21T10:12:20.919Z,14.10
2017-06-21T10:14:47.229Z,13.53
2017-06-21T10:17:13.556Z,13.37
2017-06-21T10:19:39.895Z,13.00
2017-06-21T10:22:06.228Z,12.90
2017-06-21T10:24:32.536Z,12.50
2017-06-21T10:26:58.850Z,12.57
2017-06-21T10:29:25.513Z,13.23
2017-06-21T10:31:51.816Z,12.77
2017-06-21T10:34:18.887Z,11.77
2017-06-21T10:36:45.188Z,12.57
2017-06-21T10:39:12.251Z,13.30
2017-06-21T10:41:38.553Z,12.60
2017-06-21T10:44:04.887Z,12.70
2017-06-21T10:46:31.195Z,13.17
2017-06-21T10:48:58.260Z,13.40
2017-06-21T10:51:25.319Z,12.53
2017-06-21T10:53:51.658Z,12.00
2017-06-21T10:56:17.979Z,12.13
2017-06-21T10:58:44.295Z,12.40
2017-06-21T11:01:10.611Z,12.40
2017-06-21T11:03:37.644Z,11.47
2017-06-21T11:06:03.964Z,11.93
2017-06-21T11:08:30.285Z,12.70
2017-06-21T11:10:56.604Z,12.27
2017-06-21T11:13:22.903Z,11.40
2017-06-21T11:15:49.219Z,10.53
2017-06-21T11:18:15.543Z,10.47
2017-06-21T11:20:42.990Z,9.80
2017-06-21T11:23:10.026Z,9.80
2017-06-21T11:25:36.372Z,9.50
2017-06-21T11:28:03.423Z,9.00
2017-06-21T11:30:30.459Z,9.13
2017-06-21T11:32:56.792Z,9.53
2017-06-21T11:35:23.096Z,10.00
2017-06-21T11:37:49.427Z,9.57
2017-06-21T11:40:15.744Z,10.50
2017-06-21T11:42:42.824Z,8.97
2017-06-21T11:45:09.156Z,9.90
2017-06-21T11:47:35.495Z,9.20
2017-06-21T11:50:01.799Z,9.93
2017-06-21T11:52:28.134Z,10.90
2017-06-21T11:54:54.452Z,10.77
2017-06-21T11:57:21.502Z,10.40
2017-06-21T11:59:48.581Z,10.50
2017-06-21T12:02:14.889Z,10.17
2017-06-21T12:04:41.235Z,10.00
2017-06-21T12:07:07.536Z,10.73
2017-06-21T12:09:34.596Z,10.37
2017-06-21T12:12:00.902Z,10.90
2017-06-21T12:14:27.253Z,11.10
2017-06-21T12:16:54.297Z,10.53
2017-06-21T12:19:21.407Z,11.20
2017-06-21T12:21:47.715Z,11.00
2017-06-21T12:24:14.024Z,11.63
2017-06-21T12:26:40.359Z,10.97
2017-06-21T12:29:06.666Z,14.97
2017-06-21T12:31:33.726Z,11.10
2017-06-21T12:34:00.025Z,10.87
2017-06-21T12:36:26.362Z,12.27
2017-06-21T12:38:53.403Z,11.03
2017-06-21T12:41:19.724Z,12.33
2017-06-21T12:43:46.031Z,10.57
2017-06-21T12:46:12.362Z,11.80
2017-06-21T12:48:38.671Z,11.10
2017-06-21T12:51:04.978Z,12.60
2017-06-21T12:53:32.060Z,11.80
2017-06-21T12:55:58.365Z,11.30
2017-06-21T12:58:24.701Z,10.33
2017-06-21T13:00:51.006Z,10.70
2017-06-21T13:03:18.202Z,10.10
2017-06-21T13:05:44.528Z,11.07
2017-06-21T13:08:10.851Z,11.70
2017-06-21T13:10:37.167Z,11.10
2017-06-21T13:13:03.494Z,11.03
2017-06-21T13:15:29.793Z,11.60
2017-06-21T13:17:56.127Z,10.20
2017-06-21T13:20:22.459Z,11.70
2017-06-21T13:22:48.766Z,10.90
2017-06-21T13:25:15.103Z,10.57
2017-06-21T13:27:41.408Z,11.23
2017-06-21T13:30:07.747Z,11.40
2017-06-21T13:32:34.056Z,11.43
2017-06-21T13:35:00.384Z,11.90
2017-06-21T13:37:26.723Z,11.80
2017-06-21T13:39:53.059Z,11.83
2017-06-21T13:42:19.367Z,11.97
2017-06-21T13:44:45.687Z,10.77
2017-06-21T13:47:11.992Z,11.17
2017-06-21T13:49:45.479Z,10.53
2017-06-21T13:52:11.775Z,11.30
2017-06-21T13:54:38.123Z,12.10
2017-06-21T13:57:04.423Z,10.57
2017-06-21T13:59:30.729Z,10.80
2017-06-21T14:01:57.066Z,11.10
2017-06-21T14:04:24.107Z,10.70
2017-06-21T14:06:51.170Z,11.10
2017-06-21T14:09:17.475Z,10.23
2017-06-21T14:11:44.544Z,10.63
2017-06-21T14:14:10.849Z,9.87
2017-06-21T14:16:37.962Z,10.77
2017-06-21T14:19:04.280Z,10.30
2017-06-21T14:21:30.665Z,10.63
2017-06-21T14:23:57.709Z,9.53
2017-06-21T14:26:24.756Z,9.97
2017-06-21T14:28:51.830Z,9.67
2017-06-21T14:31:18.144Z,9.60
2017-06-21T14:33:45.220Z,9.60
2017-06-21T14:36:11.527Z,9.07
2017-06-21T14:38:38.602Z,9.20
2017-06-21T14:41:04.918Z,9.07
2017-06-21T14:43:31.255Z,8.93
2017-06-21T14:45:57.564Z,8.90
2017-06-21T14:48:24.638Z,8.70
2017-06-21T14:50:50.938Z,9.03
2017-06-21T14:53:18.039Z,8.77
2017-06-21T14:55:44.346Z,9.10
2017-06-21T14:58:10.652Z,9.20
2017-06-21T15:00:37.728Z,8.80
2017-06-21T15:03:04.044Z,8.53
2017-06-21T15:05:30.374Z,8.57
2017-06-21T15:07:56.679Z,8.73
2017-06-21T15:10:23.755Z,9.03
2017-06-21T15:12:50.065Z,8.00
2017-06-21T15:15:17.147Z,7.90
2017-06-21T15:17:43.456Z,7.80
2017-06-21T15:20:09.871Z,8.63
2017-06-21T15:22:36.938Z,8.17
2017-06-21T15:25:03.281Z,7.97
2017-06-21T15:27:29.732Z,8.60
2017-06-21T15:29:56.035Z,8.40
2017-06-21T15:32:22.360Z,8.57
2017-06-21T15:34:48.671Z,8.60
2017-06-21T15:37:15.741Z,8.33
2017-06-21T15:39:42.087Z,7.80
2017-06-21T15:42:08.421Z,7.70
2017-06-21T15:44:34.731Z,7.47
2017-06-21T15:47:01.074Z,7.77
2017-06-21T15:49:27.395Z,7.63
2017-06-21T15:51:53.737Z,7.30
2017-06-21T15:54:20.056Z,6.73
2017-06-21T15:56:46.410Z,7.20
2017-06-21T15:59:12.706Z,7.37
2017-06-21T16:01:39.766Z,7.40
2017-06-21T16:04:06.098Z,7.50
2017-06-21T16:06:32.419Z,7.40
2017-06-21T16:08:59.487Z,7.17
2017-06-21T16:11:25.792Z,7.30
2017-06-21T16:13:52.855Z,7.30
2017-06-21T16:16:19.159Z,8.53
2017-06-21T16:18:46.250Z,8.10
2017-06-21T16:21:12.600Z,8.00
2017-06-21T16:23:38.939Z,7.17
2017-06-21T16:26:05.263Z,7.67
2017-06-21T16:28:31.608Z,7.60
2017-06-21T16:30:57.930Z,7.93
2017-06-21T16:33:24.235Z,7.70
2017-06-21T16:35:50.566Z,7.90
2017-06-21T16:38:16.883Z,7.87
2017-06-21T16:40:43.257Z,8.20
2017-06-21T16:43:09.560Z,8.50
2017-06-21T16:45:35.873Z,8.47
2017-06-21T16:48:02.247Z,8.77
2017-06-21T16:50:28.556Z,8.30
2017-06-21T16:52:54.992Z,7.87
2017-06-21T16:55:21.336Z,8.40
2017-06-21T16:57:47.649Z,8.80
2017-06-21T17:00:13.967Z,7.93
2017-06-21T17:02:40.295Z,8.33
2017-06-21T17:05:06.605Z,9.13
2017-06-21T17:07:33.679Z,8.20
2017-06-21T17:09:59.984Z,8.27
2017-06-21T17:12:27.056Z,8.57
2017-06-21T17:14:53.366Z,8.50
2017-06-21T17:17:19.702Z,8.20
2017-06-21T17:19:46.052Z,8.43
2017-06-21T17:22:12.379Z,8.10
2017-06-21T17:24:38.689Z,8.67
2017-06-21T17:27:05.016Z,7.50
2017-06-21T17:29:32.065Z,7.50
2017-06-21T17:31:58.378Z,7.70
2017-06-21T17:34:25.451Z,8.40
2017-06-21T17:36:51.760Z,8.20
2017-06-21T17:39:18.828Z,8.20
2017-06-21T17:41:45.135Z,8.83
2017-06-21T17:44:12.195Z,8.47
2017-06-21T17:46:39.244Z,8.77
2017-06-21T17:49:06.323Z,7.87
2017-06-21T17:51:32.661Z,8.20
2017-06-21T17:53:58.983Z,8.70
2017-06-21T17:56:25.294Z,7.97
2017-06-21T17:58:51.629Z,8.70
2017-06-21T18:01:17.959Z,8.33
2017-06-21T18:03:44.267Z,7.70
2017-06-21T18:06:11.337Z,8.10
2017-06-21T18:08:37.646Z,8.60
2017-06-21T18:11:04.712Z,7.80
2017-06-21T18:13:31.029Z,8.10
2017-06-21T18:15:58.101Z,7.83
2017-06-21T18:18:25.417Z,8.00
2017-06-21T18:20:52.491Z,8.13
2017-06-21T18:23:18.813Z,7.70
2017-06-21T18:25:45.904Z,7.43
2017-06-21T18:28:12.211Z,7.87
2017-06-21T18:30:38.619Z,7.60
2017-06-21T18:33:04.969Z,7.83
2017-06-21T18:35:31.277Z,8.13
2017-06-21T18:37:58.401Z,7.57
2017-06-21T18:40:24.706Z,8.17
2017-06-21T18:42:51.027Z,8.40
2017-06-21T18:45:17.332Z,8.67
2017-06-21T18:47:43.660Z,8.07
2017-06-21T18:50:09.983Z,7.43
2017-06-21T18:52:37.071Z,7.70
2017-06-21T18:55:03.378Z,8.17
2017-06-21T18:57:29.683Z,7.70
2017-06-21T18:59:56.751Z,7.70
2017-06-21T19:02:23.064Z,8.67
2017-06-21T19:04:50.156Z,8.40
2017-06-21T19:07:16.472Z,9.43
2017-06-21T19:09:42.795Z,9.20
2017-06-21T19:12:09.108Z,8.50
2017-06-21T19:14:36.181Z,9.03
2017-06-21T19:17:02.496Z,8.90
2017-06-21T19:19:28.835Z,9.23
2017-06-21T19:21:55.140Z,9.10
2017-06-21T19:24:22.201Z,10.30
2017-06-21T19:26:49.277Z,12.90
2017-06-21T19:29:15.607Z,10.33
2017-06-21T19:31:42.035Z,9.60
2017-06-21T19:34:08.344Z,9.23
2017-06-21T19:36:35.428Z,9.97
2017-06-21T19:39:01.814Z,10.50
2017-06-21T19:41:29.078Z,10.07
2017-06-21T19:43:55.396Z,10.73
2017-06-21T19:46:21.730Z,9.90
2017-06-21T19:48:48.779Z,10.63
2017-06-21T19:51:15.084Z,9.93
2017-06-21T19:53:41.407Z,9.23
2017-06-21T19:56:07.713Z,9.80
2017-06-21T19:58:34.047Z,9.53
2017-06-21T20:01:00.366Z,10.00
2017-06-21T20:03:26.705Z,10.83
2017-06-21T20:05:53.012Z,10.70
2017-06-21T20:08:19.378Z,11.40
2017-06-21T20:10:45.678Z,10.03
2017-06-21T20:13:12.011Z,10.60
2017-06-21T20:15:38.331Z,9.97
2017-06-21T20:18:04.667Z,10.10
2017-06-21T20:20:31.005Z,9.73
2017-06-21T20:22:57.365Z,10.60
2017-06-21T20:25:23.704Z,10.57
2017-06-21T20:27:50.054Z,10.93
2017-06-21T20:30:16.408Z,10.40
2017-06-21T20:32:43.459Z,10.73
2017-06-21T20:35:09.818Z,10.70
2017-06-21T20:37:36.138Z,11.10
2017-06-21T20:40:02.480Z,11.10
2017-06-21T20:42:28.782Z,11.50
2017-06-21T20:44:55.845Z,10.90
2017-06-21T20:47:22.148Z,11.40
2017-06-21T20:49:49.211Z,11.23
2017-06-21T20:52:15.531Z,11.27
2017-06-21T20:54:42.602Z,10.60
2017-06-21T20:57:08.909Z,10.83
2017-06-21T20:59:35.968Z,11.80
2017-06-21T21:02:02.307Z,11.20
2017-06-21T21:04:28.610Z,11.67
2017-06-21T21:06:55.736Z,11.83
2017-06-21T21:09:22.328Z,12.77
2017-06-21T21:11:48.659Z,12.90
2017-06-21T21:14:14.965Z,11.33
2017-06-21T21:16:41.312Z,11.70
2017-06-21T21:19:07.660Z,11.83
2017-06-21T21:21:33.964Z,11.40
2017-06-21T21:24:01.023Z,12.53
2017-06-21T21:26:27.346Z,12.67
2017-06-21T21:28:53.683Z,12.33
2017-06-21T21:31:19.974Z,12.83
2017-06-21T21:33:46.305Z,12.70
2017-06-21T21:36:12.623Z,11.23
2017-06-21T21:38:38.960Z,12.77
2017-06-21T21:41:05.258Z,12.93
2017-06-21T21:43:31.590Z,11.87
2017-06-21T21:45:57.899Z,11.43
2017-06-21T21:48:24.229Z,11.40
2017-06-21T21:50:50.531Z,12.43
2017-06-21T21:53:17.580Z,13.00
2017-06-21T21:55:43.919Z,13.23
2017-06-21T21:58:10.977Z,13.30
2017-06-21T22:00:37.319Z,13.17
2017-06-21T22:03:04.367Z,12.07
2017-06-21T22:05:31.447Z,13.10
2017-06-21T22:07:57.758Z,13.60
2017-06-21T22:10:24.088Z,13.77
2017-06-21T22:12:51.132Z,14.10
2017-06-21T22:15:18.205Z,14.37
2017-06-21T22:17:44.507Z,13.77
2017-06-21T22:20:11.591Z,13.33
2017-06-21T22:22:37.903Z,14.47
2017-06-21T22:25:04.246Z,13.90
2017-06-21T22:27:30.559Z,14.80
2017-06-21T22:30:04.006Z,14.60
2017-06-21T22:32:30.336Z,14.20
2017-06-21T22:34:56.646Z,14.33
2017-06-21T22:37:22.978Z,14.97
2017-06-21T22:39:49.277Z,14.53
2017-06-21T22:42:15.612Z,15.07
2017-06-21T22:44:41.917Z,14.70
2017-06-21T22:47:08.996Z,15.77
2017-06-21T22:49:35.309Z,14.83
2017-06-21T22:52:02.355Z,14.23
2017-06-21T22:54:29.431Z,14.07
2017-06-21T22:56:55.725Z,13.40
2017-06-21T22:59:22.791Z,15.60
2017-06-21T23:01:49.100Z,14.73
2017-06-21T23:04:16.180Z,15.33
2017-06-21T23:06:42.480Z,14.93
2017-06-21T23:09:09.548Z,14.70
2017-06-21T23:11:35.864Z,15.00
2017-06-21T23:14:02.953Z,14.33
2017-06-21T23:16:29.260Z,14.37
2017-06-21T23:18:55.600Z,14.80
2017-06-21T23:21:21.919Z,15.17
2017-06-21T23:23:48.230Z,14.17
2017-06-21T23:26:15.298Z,15.10
2017-06-21T23:28:41.609Z,15.50
2017-06-21T23:31:08.675Z,15.27
2017-06-21T23:33:34.986Z,15.77
2017-06-21T23:36:02.068Z,15.57
2017-06-21T23:38:28.375Z,14.50
2017-06-21T23:40:55.429Z,15.70
2017-06-21T23:43:21.811Z,15.97
2017-06-21T23:45:48.123Z,16.80
2017-06-21T23:48:14.454Z,16.47
2017-06-21T23:50:40.763Z,15.80
2017-06-21T23:53:07.093Z,16.47
2017-06-21T23:55:33.408Z,15.43
2017-06-21T23:57:59.735Z,16.43
